Security, Colorado
Current Conditions -  °F | °C
As of 4:54 AM on Monday 20 Oct 2014 (Local Time) from KCOS Reporting Station
Clear Clear  
Wind Chill: 41°   Ceiling: Unl
Heat Index: 44°   Visibility: 10mi
Dew Point: 36°   Wind: 6mph
Humidity: 73%   Direction: 360°N
Pressure: 30.23"   Gusts: NA
Location:  38.7421°N, 104.639°W
Report Text: KCOS 201054Z 36005KT 10SM CLR 07/02 A3023 RMK AO2 SLP186 T00670022
Loading
Personal Weather Stations






























Interactive Weather Map
Tropical Storm Tracking
New forecast layout! Learn more

10-Day Weather Forecast

Advertisements
Track Severe Weather on mobile